Time;durP1;ratioP1;P1;durP2;ratioP2;P2;SDS_P1;SDS_P2;PMS_P1;PMS_P2;Temp;Humidity;BMP_temperature;BMP_pressure;BME280_temperature;BME280_humidity;BME280_pressure;Samples;Min_cycle;Max_cycle;Signal;HPM_P1;HPM_P2
2021/02/12 00:02:53;;;;;;;4.28;3.88;;;;;;;17.77;39.75;101707.58;;;;-55
2021/02/12 00:05:53;;;;;;;4.27;3.85;;;;;;;17.73;39.65;101701.29;;;;-54
2021/02/12 00:08:52;;;;;;;4.20;3.80;;;;;;;17.71;39.78;101696.84;;;;-55
2021/02/12 00:11:52;;;;;;;4.27;3.87;;;;;;;17.68;39.80;101699.23;;;;-55
2021/02/12 00:14:53;;;;;;;4.61;3.83;;;;;;;17.65;39.78;101697.93;;;;-51
2021/02/12 00:17:52;;;;;;;4.22;3.82;;;;;;;17.62;39.71;101701.50;;;;-50
2021/02/12 00:20:53;;;;;;;4.31;3.83;;;;;;;17.60;39.74;101697.45;;;;-52
2021/02/12 00:23:53;;;;;;;4.52;4.01;;;;;;;17.57;39.65;101695.47;;;;-53
2021/02/12 00:26:53;;;;;;;4.87;4.07;;;;;;;17.54;39.80;101689.70;;;;-52
2021/02/12 00:29:53;;;;;;;4.29;3.86;;;;;;;17.52;39.75;101693.45;;;;-52
2021/02/12 00:32:52;;;;;;;4.37;3.75;;;;;;;17.49;39.75;101688.95;;;;-52
2021/02/12 00:35:53;;;;;;;4.27;3.85;;;;;;;17.47;39.72;101689.61;;;;-56
2021/02/12 00:38:53;;;;;;;4.15;3.75;;;;;;;17.44;39.80;101688.97;;;;-55
2021/02/12 00:41:52;;;;;;;4.13;3.70;;;;;;;17.43;39.79;101688.17;;;;-51
2021/02/12 00:44:53;;;;;;;3.93;3.54;;;;;;;17.39;39.82;101691.88;;;;-51
2021/02/12 00:47:52;;;;;;;4.58;3.89;;;;;;;17.37;39.90;101684.52;;;;-51
2021/02/12 00:50:53;;;;;;;4.31;3.66;;;;;;;17.35;39.85;101681.62;;;;-51
2021/02/12 00:53:53;;;;;;;4.03;3.63;;;;;;;17.32;39.56;101685.95;;;;-56
2021/02/12 00:56:52;;;;;;;4.65;4.03;;;;;;;17.29;39.74;101685.13;;;;-56
2021/02/12 00:59:54;;;;;;;3.95;3.55;;;;;;;17.27;39.88;101686.10;;;;-56
2021/02/12 01:02:52;;;;;;;4.67;3.87;;;;;;;17.25;39.95;101689.36;;;;-51
2021/02/12 01:05:53;;;;;;;3.67;3.33;;;;;;;17.24;39.75;101697.41;;;;-52
2021/02/12 01:08:53;;;;;;;3.74;3.44;;;;;;;17.20;39.98;101701.43;;;;-53
2021/02/12 01:11:52;;;;;;;3.79;3.44;;;;;;;17.19;39.79;101702.59;;;;-52
2021/02/12 01:14:52;;;;;;;4.17;3.53;;;;;;;17.17;39.77;101705.34;;;;-51
2021/02/12 01:17:53;;;;;;;4.60;3.84;;;;;;;17.14;39.81;101701.49;;;;-52
2021/02/12 01:20:52;;;;;;;3.93;3.53;;;;;;;17.12;39.82;101704.09;;;;-52
2021/02/12 01:23:53;;;;;;;4.11;3.71;;;;;;;17.10;39.80;101699.41;;;;-52
2021/02/12 01:26:52;;;;;;;3.85;3.55;;;;;;;17.07;39.90;101699.96;;;;-52
2021/02/12 01:29:52;;;;;;;3.87;3.47;;;;;;;17.06;39.87;101700.18;;;;-52
2021/02/12 01:32:53;;;;;;;3.79;3.43;;;;;;;17.03;39.78;101699.41;;;;-52
2021/02/12 01:35:52;;;;;;;3.93;3.53;;;;;;;17.02;39.86;101693.80;;;;-52
2021/02/12 01:38:53;;;;;;;3.95;3.55;;;;;;;16.99;39.93;101690.84;;;;-52
2021/02/12 01:41:52;;;;;;;4.04;3.63;;;;;;;16.96;39.80;101686.38;;;;-52
2021/02/12 01:44:52;;;;;;;4.05;3.65;;;;;;;16.95;39.86;101688.34;;;;-52
2021/02/12 01:47:53;;;;;;;3.57;3.27;;;;;;;16.93;39.84;101692.56;;;;-52
2021/02/12 01:50:52;;;;;;;3.61;3.26;;;;;;;16.93;39.75;101697.66;;;;-52
2021/02/12 01:53:53;;;;;;;3.71;3.38;;;;;;;16.92;39.67;101695.38;;;;-52
2021/02/12 01:56:52;;;;;;;3.45;3.15;;;;;;;16.90;39.73;101700.31;;;;-52
2021/02/12 01:59:52;;;;;;;3.95;3.49;;;;;;;16.88;39.78;101702.51;;;;-52
2021/02/12 02:02:53;;;;;;;3.61;3.29;;;;;;;16.87;39.80;101704.20;;;;-52
2021/02/12 02:05:52;;;;;;;3.50;3.08;;;;;;;16.84;39.81;101702.38;;;;-53
2021/02/12 02:08:53;;;;;;;3.55;3.25;;;;;;;16.83;39.87;101702.35;;;;-52
2021/02/12 02:11:53;;;;;;;3.47;3.17;;;;;;;16.82;39.77;101702.78;;;;-52
2021/02/12 02:14:52;;;;;;;3.97;3.57;;;;;;;16.80;39.79;101699.84;;;;-53
2021/02/12 02:17:53;;;;;;;3.43;3.13;;;;;;;16.78;39.80;101701.38;;;;-52
2021/02/12 02:20:52;;;;;;;3.41;3.10;;;;;;;16.77;39.96;101701.44;;;;-52
2021/02/12 02:23:52;;;;;;;3.58;3.28;;;;;;;16.75;39.74;101703.14;;;;-52
2021/02/12 02:26:53;;;;;;;3.46;3.16;;;;;;;16.73;39.80;101702.50;;;;-52
2021/02/12 02:29:52;;;;;;;3.67;3.21;;;;;;;16.71;39.84;101701.30;;;;-52
2021/02/12 02:32:52;;;;;;;3.24;2.94;;;;;;;16.69;39.95;101700.33;;;;-52
2021/02/12 02:35:53;;;;;;;3.31;3.01;;;;;;;16.68;39.99;101698.25;;;;-52
2021/02/12 02:38:52;;;;;;;3.58;3.09;;;;;;;16.66;39.81;101698.58;;;;-52
2021/02/12 02:41:53;;;;;;;3.91;2.99;;;;;;;16.64;39.99;101691.78;;;;-52
2021/02/12 02:44:52;;;;;;;3.65;3.09;;;;;;;16.63;39.81;101693.13;;;;-52
2021/02/12 02:47:52;;;;;;;3.45;3.15;;;;;;;16.62;39.84;101700.16;;;;-53
2021/02/12 02:50:53;;;;;;;3.37;3.07;;;;;;;16.60;39.87;101701.01;;;;-53
2021/02/12 02:53:52;;;;;;;3.51;3.07;;;;;;;16.57;39.80;101700.61;;;;-52
2021/02/12 02:56:52;;;;;;;3.03;2.73;;;;;;;16.56;39.84;101699.94;;;;-53
2021/02/12 02:59:52;;;;;;;3.13;2.83;;;;;;;16.55;40.03;101698.16;;;;-52
2021/02/12 03:02:52;;;;;;;3.27;2.97;;;;;;;16.53;40.03;101695.27;;;;-53
2021/02/12 03:05:53;;;;;;;3.20;2.90;;;;;;;16.50;39.95;101689.66;;;;-52
2021/02/12 03:08:52;;;;;;;3.38;3.08;;;;;;;16.51;39.83;101685.80;;;;-52
2021/02/12 03:11:53;;;;;;;3.09;2.79;;;;;;;16.49;39.79;101687.98;;;;-52
2021/02/12 03:14:52;;;;;;;3.31;3.01;;;;;;;16.46;39.92;101687.66;;;;-52
2021/02/12 03:17:52;;;;;;;3.53;3.01;;;;;;;16.46;39.82;101682.78;;;;-52
2021/02/12 03:20:53;;;;;;;3.31;3.01;;;;;;;16.44;39.83;101680.13;;;;-53
2021/02/12 03:23:52;;;;;;;3.12;2.82;;;;;;;16.43;39.80;101680.30;;;;-52
2021/02/12 03:26:52;;;;;;;3.27;2.97;;;;;;;16.42;39.89;101679.79;;;;-52
2021/02/12 03:29:53;;;;;;;2.93;2.72;;;;;;;16.41;39.91;101673.99;;;;-52
2021/02/12 03:32:52;;;;;;;3.25;2.94;;;;;;;16.39;39.91;101674.16;;;;-55
2021/02/12 03:35:53;;;;;;;3.17;2.87;;;;;;;16.38;39.87;101671.14;;;;-57
2021/02/12 03:38:52;;;;;;;2.95;2.70;;;;;;;16.36;39.88;101668.25;;;;-56
2021/02/12 03:41:52;;;;;;;3.17;2.87;;;;;;;16.34;39.87;101669.54;;;;-56
2021/02/12 03:44:52;;;;;;;3.13;2.76;;;;;;;16.33;39.93;101670.69;;;;-55
2021/02/12 03:47:52;;;;;;;3.21;2.90;;;;;;;16.31;39.96;101672.76;;;;-56
2021/02/12 03:50:53;;;;;;;2.75;2.55;;;;;;;16.29;39.81;101670.41;;;;-56
2021/02/12 03:53:52;;;;;;;2.94;2.67;;;;;;;16.29;39.95;101668.15;;;;-56
2021/02/12 03:56:53;;;;;;;2.93;2.63;;;;;;;16.28;39.93;101673.01;;;;-56
2021/02/12 03:59:53;;;;;;;2.79;2.59;;;;;;;16.26;39.92;101678.69;;;;-56
2021/02/12 04:02:52;;;;;;;2.89;2.59;;;;;;;16.26;39.92;101674.16;;;;-56
2021/02/12 04:05:53;;;;;;;2.81;2.61;;;;;;;16.24;40.02;101669.86;;;;-56
2021/02/12 04:08:52;;;;;;;3.03;2.73;;;;;;;16.23;39.87;101666.69;;;;-56
2021/02/12 04:11:52;;;;;;;2.89;2.59;;;;;;;16.21;39.96;101664.59;;;;-56
2021/02/12 04:14:53;;;;;;;2.88;2.61;;;;;;;16.20;39.74;101661.22;;;;-56
2021/02/12 04:17:52;;;;;;;2.95;2.64;;;;;;;16.18;39.86;101664.05;;;;-56
2021/02/12 04:20:52;;;;;;;2.71;2.50;;;;;;;16.17;39.95;101665.66;;;;-56
2021/02/12 04:23:53;;;;;;;2.91;2.61;;;;;;;16.16;39.84;101669.48;;;;-52
2021/02/12 04:26:52;;;;;;;2.71;2.51;;;;;;;16.15;39.81;101666.12;;;;-51
2021/02/12 04:29:53;;;;;;;2.76;2.56;;;;;;;16.14;39.96;101665.42;;;;-52
2021/02/12 04:32:52;;;;;;;3.12;2.68;;;;;;;16.12;39.96;101668.14;;;;-52
2021/02/12 04:35:53;;;;;;;2.73;2.53;;;;;;;16.11;39.78;101663.63;;;;-56
2021/02/12 04:38:53;;;;;;;2.69;2.49;;;;;;;16.10;39.96;101666.28;;;;-56
2021/02/12 04:41:52;;;;;;;2.95;2.57;;;;;;;16.11;39.94;101670.25;;;;-55
2021/02/12 04:44:52;;;;;;;2.89;2.47;;;;;;;16.08;39.95;101671.08;;;;-52
2021/02/12 04:47:52;;;;;;;2.53;2.33;;;;;;;16.06;39.89;101669.76;;;;-52
2021/02/12 04:50:52;;;;;;;2.65;2.45;;;;;;;16.05;39.76;101668.25;;;;-52
2021/02/12 04:53:52;;;;;;;2.64;2.44;;;;;;;16.05;39.87;101670.42;;;;-51
2021/02/12 04:56:52;;;;;;;2.53;2.28;;;;;;;16.04;39.81;101671.41;;;;-57
2021/02/12 04:59:52;;;;;;;2.89;2.59;;;;;;;16.03;39.96;101665.74;;;;-57
2021/02/12 05:02:52;;;;;;;2.41;2.21;;;;;;;16.03;39.91;101663.30;;;;-52
2021/02/12 05:05:52;;;;;;;2.59;2.39;;;;;;;16.02;39.93;101669.99;;;;-56
2021/02/12 05:10:52;;;;;;;2.52;2.32;;;;;;;16.01;39.94;101672.84;;;;-51
2021/02/12 05:13:53;;;;;;;2.63;2.43;;;;;;;15.99;40.02;101676.72;;;;-51
2021/02/12 05:16:53;;;;;;;2.36;2.16;;;;;;;15.98;39.91;101678.77;;;;-57
2021/02/12 05:19:52;;;;;;;2.45;2.25;;;;;;;15.97;39.94;101674.37;;;;-52
2021/02/12 05:22:52;;;;;;;2.92;2.45;;;;;;;15.95;39.93;101670.34;;;;-52
2021/02/12 05:25:52;;;;;;;2.45;2.25;;;;;;;15.94;39.98;101668.45;;;;-55
2021/02/12 05:28:52;;;;;;;2.61;2.35;;;;;;;15.94;40.07;101659.23;;;;-53
2021/02/12 05:31:52;;;;;;;2.77;2.49;;;;;;;15.93;39.80;101660.31;;;;-53
2021/02/12 05:34:52;;;;;;;2.53;2.33;;;;;;;15.93;39.90;101661.94;;;;-52
2021/02/12 05:37:52;;;;;;;2.40;2.17;;;;;;;15.92;39.95;101673.53;;;;-55
2021/02/12 05:40:52;;;;;;;2.75;2.50;;;;;;;15.92;39.70;101680.16;;;;-52
2021/02/12 05:43:52;;;;;;;2.60;2.20;;;;;;;15.91;39.84;101677.13;;;;-52
2021/02/12 05:46:53;;;;;;;2.50;2.29;;;;;;;15.90;39.76;101677.34;;;;-55
2021/02/12 05:49:52;;;;;;;2.41;2.21;;;;;;;15.88;39.98;101678.72;;;;-56
2021/02/12 05:52:52;;;;;;;2.66;2.30;;;;;;;15.89;39.97;101675.59;;;;-57
2021/02/12 05:55:52;;;;;;;2.39;2.19;;;;;;;15.87;39.94;101681.17;;;;-55
2021/02/12 05:58:52;;;;;;;2.51;2.31;;;;;;;15.86;39.82;101682.27;;;;-54
2021/02/12 06:01:53;;;;;;;2.52;2.32;;;;;;;15.85;40.00;101674.37;;;;-57
2021/02/12 06:04:52;;;;;;;2.62;2.42;;;;;;;15.86;39.94;101677.20;;;;-54
2021/02/12 06:07:52;;;;;;;2.67;2.47;;;;;;;15.84;39.88;101679.70;;;;-55
2021/02/12 06:10:52;;;;;;;2.52;2.32;;;;;;;15.84;39.85;101679.45;;;;-56
2021/02/12 06:13:52;;;;;;;3.38;2.41;;;;;;;15.82;39.89;101677.59;;;;-52
2021/02/12 06:16:52;;;;;;;2.40;2.20;;;;;;;15.81;39.81;101673.33;;;;-51
2021/02/12 06:19:52;;;;;;;2.59;2.39;;;;;;;15.82;39.74;101675.64;;;;-57
2021/02/12 06:22:52;;;;;;;2.62;2.42;;;;;;;15.83;39.71;101673.97;;;;-51
2021/02/12 06:25:52;;;;;;;2.33;2.13;;;;;;;15.85;39.70;101684.92;;;;-55
2021/02/12 06:28:52;;;;;;;2.67;2.47;;;;;;;15.88;39.65;101684.84;;;;-52
2021/02/12 06:31:53;;;;;;;2.49;2.29;;;;;;;15.90;39.64;101680.01;;;;-52
2021/02/12 06:34:52;;;;;;;2.49;2.29;;;;;;;15.93;39.56;101682.62;;;;-52
2021/02/12 06:37:52;;;;;;;2.40;2.20;;;;;;;15.95;39.65;101676.32;;;;-55
2021/02/12 06:40:52;;;;;;;2.31;2.11;;;;;;;15.97;39.61;101683.52;;;;-57
2021/02/12 06:43:53;;;;;;;2.51;2.29;;;;;;;15.99;39.70;101684.39;;;;-54
2021/02/12 06:46:52;;;;;;;2.33;2.13;;;;;;;16.02;39.81;101690.97;;;;-55
2021/02/12 06:49:52;;;;;;;2.27;2.07;;;;;;;16.04;39.99;101691.75;;;;-52
2021/02/12 06:52:52;;;;;;;2.32;2.12;;;;;;;16.07;40.09;101689.91;;;;-52
2021/02/12 06:55:52;;;;;;;2.37;2.17;;;;;;;16.09;40.35;101695.73;;;;-52
2021/02/12 06:58:52;;;;;;;2.43;2.23;;;;;;;16.12;40.34;101698.25;;;;-51
2021/02/12 07:01:52;;;;;;;2.30;2.10;;;;;;;16.15;40.49;101703.08;;;;-52
2021/02/12 07:04:52;;;;;;;2.35;2.08;;;;;;;16.18;40.44;101706.11;;;;-52
2021/02/12 07:07:52;;;;;;;2.34;2.14;;;;;;;16.21;40.51;101702.61;;;;-52
2021/02/12 07:10:52;;;;;;;2.40;2.20;;;;;;;16.25;40.51;101706.56;;;;-52
2021/02/12 07:13:53;;;;;;;2.29;2.09;;;;;;;16.29;40.44;101700.30;;;;-53
2021/02/12 07:16:53;;;;;;;2.31;2.11;;;;;;;16.34;40.44;101705.45;;;;-51
2021/02/12 07:19:52;;;;;;;2.40;2.20;;;;;;;16.37;40.40;101705.11;;;;-51
2021/02/12 07:22:52;;;;;;;2.23;2.03;;;;;;;16.42;40.38;101707.23;;;;-51
2021/02/12 07:25:53;;;;;;;2.34;2.13;;;;;;;16.46;40.42;101713.92;;;;-50
2021/02/12 07:28:52;;;;;;;2.45;2.25;;;;;;;16.50;40.38;101714.34;;;;-51
2021/02/12 07:31:53;;;;;;;2.27;2.07;;;;;;;16.53;40.41;101714.36;;;;-52
2021/02/12 07:34:52;;;;;;;2.45;2.25;;;;;;;16.56;40.31;101718.91;;;;-51
2021/02/12 07:37:52;;;;;;;2.34;2.14;;;;;;;16.59;40.37;101728.44;;;;-55
2021/02/12 07:40:52;;;;;;;3.87;2.41;;;;;;;16.62;39.92;101725.33;;;;-49
2021/02/12 07:43:52;;;;;;;2.97;2.27;;;;;;;16.64;39.97;101725.28;;;;-49
2021/02/12 07:46:52;;;;;;;2.38;2.18;;;;;;;16.64;40.00;101722.22;;;;-49
2021/02/12 07:49:53;;;;;;;3.47;2.21;;;;;;;16.65;40.03;101726.08;;;;-49
2021/02/12 07:52:52;;;;;;;3.48;2.03;;;;;;;16.65;40.07;101728.25;;;;-49
2021/02/12 07:55:52;;;;;;;2.67;2.20;;;;;;;16.66;40.09;101727.39;;;;-49
2021/02/12 07:58:52;;;;;;;3.05;2.11;;;;;;;16.66;40.08;101725.94;;;;-53
2021/02/12 08:01:55;;;;;;;2.45;2.15;;;;;;;16.66;40.21;101729.05;;;;-53
2021/02/12 08:17:27;;;;;;;3.08;2.20;;;;;;;16.70;40.16;101726.02;;;;-51
2021/02/12 08:20:27;;;;;;;4.68;3.41;;;;;;;16.52;37.04;101723.28;;;;-52
2021/02/12 08:23:28;;;;;;;9.73;3.32;;;;;;;16.44;36.76;101724.30;;;;-52
2021/02/12 08:26:27;;;;;;;7.11;3.27;;;;;;;16.46;37.68;101729.78;;;;-53
2021/02/12 08:29:27;;;;;;;4.53;2.95;;;;;;;16.50;38.02;101729.99;;;;-49
2021/02/12 08:32:27;;;;;;;4.73;2.63;;;;;;;16.53;38.33;101730.30;;;;-51
2021/02/12 08:35:27;;;;;;;3.73;2.65;;;;;;;16.56;38.38;101726.99;;;;-50
2021/02/12 08:38:27;;;;;;;3.08;2.43;;;;;;;16.60;38.52;101729.91;;;;-51
2021/02/12 08:41:27;;;;;;;3.57;2.39;;;;;;;16.62;38.70;101728.97;;;;-48
2021/02/12 08:44:27;;;;;;;7.35;2.46;;;;;;;16.65;38.78;101729.08;;;;-50
2021/02/12 08:47:28;;;;;;;3.13;2.31;;;;;;;16.69;38.87;101727.11;;;;-50
2021/02/12 08:50:27;;;;;;;4.51;2.30;;;;;;;16.72;38.96;101731.84;;;;-48
2021/02/12 08:53:27;;;;;;;2.75;2.36;;;;;;;16.75;39.02;101728.41;;;;-48
2021/02/12 08:56:27;;;;;;;2.55;2.32;;;;;;;16.80;39.02;101726.30;;;;-48
2021/02/12 08:59:27;;;;;;;7.35;2.29;;;;;;;16.87;40.31;101728.37;;;;-51
2021/02/12 09:02:27;;;;;;;2.99;2.35;;;;;;;16.92;40.42;101717.49;;;;-50
2021/02/12 09:05:27;;;;;;;3.03;2.18;;;;;;;16.98;40.57;101717.80;;;;-52
2021/02/12 09:08:27;;;;;;;2.31;2.08;;;;;;;17.06;40.36;101721.16;;;;-52
2021/02/12 09:11:27;;;;;;;4.87;2.12;;;;;;;17.11;40.72;101721.58;;;;-51
2021/02/12 09:14:27;;;;;;;10.59;2.22;;;;;;;17.17;41.08;101727.96;;;;-51
2021/02/12 09:17:27;;;;;;;3.35;1.97;;;;;;;17.23;40.71;101724.45;;;;-46
2021/02/12 09:20:27;;;;;;;3.15;2.23;;;;;;;17.27;40.68;101722.41;;;;-47
2021/02/12 09:23:27;;;;;;;4.21;2.14;;;;;;;17.31;40.75;101726.44;;;;-58
2021/02/12 09:26:27;;;;;;;3.58;2.18;;;;;;;17.35;40.55;101724.41;;;;-53
2021/02/12 09:29:27;;;;;;;3.01;1.99;;;;;;;17.37;40.30;101722.40;;;;-53
2021/02/12 09:32:27;;;;;;;2.47;2.00;;;;;;;17.37;40.24;101717.49;;;;-50
2021/02/12 09:35:27;;;;;;;3.61;1.91;;;;;;;17.38;40.24;101727.09;;;;-52
2021/02/12 09:38:27;;;;;;;2.27;2.01;;;;;;;17.40;40.21;101729.74;;;;-52
2021/02/12 09:41:26;;;;;;;3.95;2.13;;;;;;;17.48;40.13;101730.75;;;;-50
2021/02/12 09:44:27;;;;;;;2.28;2.06;;;;;;;17.53;40.08;101734.33;;;;-54
2021/02/12 09:47:27;;;;;;;2.50;2.00;;;;;;;17.57;40.17;101729.84;;;;-54
2021/02/12 09:50:28;;;;;;;2.01;1.85;;;;;;;17.62;40.25;101725.45;;;;-56
2021/02/12 09:53:27;;;;;;;3.00;2.06;;;;;;;17.65;40.23;101733.67;;;;-50
2021/02/12 09:56:27;;;;;;;2.66;2.38;;;;;;;17.62;38.41;101722.81;;;;-58
2021/02/12 09:59:27;;;;;;;6.35;2.43;;;;;;;17.68;38.88;101729.67;;;;-50
2021/02/12 10:02:27;;;;;;;3.11;2.21;;;;;;;17.71;39.32;101726.59;;;;-54
2021/02/12 10:05:27;;;;;;;3.27;2.16;;;;;;;17.76;39.53;101723.34;;;;-52
2021/02/12 10:08:27;;;;;;;3.33;1.98;;;;;;;17.80;39.75;101727.61;;;;-52
2021/02/12 10:11:27;;;;;;;3.03;2.07;;;;;;;17.84;39.80;101725.69;;;;-50
2021/02/12 10:14:27;;;;;;;4.03;2.16;;;;;;;17.88;39.75;101727.93;;;;-45
2021/02/12 10:17:27;;;;;;;2.57;2.31;;;;;;;17.92;39.84;101725.05;;;;-47
2021/02/12 10:20:27;;;;;;;2.63;2.08;;;;;;;17.95;39.95;101724.93;;;;-52
2021/02/12 10:23:27;;;;;;;3.61;2.27;;;;;;;17.98;39.93;101732.56;;;;-54
2021/02/12 10:26:38;;;;;;;2.20;2.00;;;;;;;18.02;39.83;101729.45;;;;-51
2021/02/12 10:29:26;;;;;;;3.25;2.10;;;;;;;18.06;39.89;101730.95;;;;-49
2021/02/12 10:32:27;;;;;;;2.84;1.90;;;;;;;18.07;39.90;101731.50;;;;-45
2021/02/12 10:35:27;;;;;;;2.21;1.98;;;;;;;18.12;40.02;101735.52;;;;-52
2021/02/12 10:38:27;;;;;;;2.11;1.91;;;;;;;18.15;39.94;101744.22;;;;-47
2021/02/12 10:41:27;;;;;;;2.22;2.02;;;;;;;18.17;40.04;101740.80;;;;-46
2021/02/12 10:44:27;;;;;;;2.53;2.13;;;;;;;18.20;39.87;101739.38;;;;-49
2021/02/12 10:47:27;;;;;;;2.29;1.82;;;;;;;18.22;40.04;101740.05;;;;-49
2021/02/12 10:50:27;;;;;;;2.13;1.93;;;;;;;18.26;39.83;101742.73;;;;-48
2021/02/12 10:53:27;;;;;;;2.08;1.87;;;;;;;18.30;39.83;101749.71;;;;-54
2021/02/12 10:56:27;;;;;;;2.59;1.95;;;;;;;18.32;39.90;101750.42;;;;-54
2021/02/12 10:59:27;;;;;;;2.52;2.09;;;;;;;18.33;39.85;101749.75;;;;-54
2021/02/12 11:02:26;;;;;;;2.50;2.00;;;;;;;18.38;39.90;101741.05;;;;-52
2021/02/12 11:05:27;;;;;;;2.65;2.00;;;;;;;18.39;39.78;101745.00;;;;-52
2021/02/12 11:08:27;;;;;;;3.15;1.94;;;;;;;18.38;39.76;101740.80;;;;-52
2021/02/12 11:11:27;;;;;;;2.12;1.88;;;;;;;18.37;39.74;101745.34;;;;-52
2021/02/12 11:14:27;;;;;;;3.15;1.95;;;;;;;18.37;39.75;101745.17;;;;-50
2021/02/12 11:17:27;;;;;;;2.32;2.05;;;;;;;18.37;39.68;101743.22;;;;-50
2021/02/12 11:20:26;;;;;;;2.23;2.03;;;;;;;18.42;39.49;101741.25;;;;-51
2021/02/12 11:23:27;;;;;;;3.96;2.08;;;;;;;18.43;39.48;101738.80;;;;-44
2021/02/12 11:26:29;;;;;;;3.23;2.00;;;;;;;18.46;39.59;101734.16;;;;-52
2021/02/12 11:29:27;;;;;;;5.31;2.27;;;;;;;18.49;39.50;101729.32;;;;-51
2021/02/12 11:32:27;;;;;;;5.04;2.07;;;;;;;18.53;39.49;101728.31;;;;-57
2021/02/12 11:35:26;;;;;;;2.66;2.14;;;;;;;18.52;39.61;101733.05;;;;-55
2021/02/12 11:38:27;;;;;;;2.87;1.91;;;;;;;18.51;39.66;101731.62;;;;-56
2021/02/12 11:41:27;;;;;;;3.01;2.00;;;;;;;18.50;39.67;101729.41;;;;-56
2021/02/12 11:44:27;;;;;;;2.26;2.04;;;;;;;18.50;39.65;101734.03;;;;-55
2021/02/12 11:47:27;;;;;;;3.52;1.79;;;;;;;18.50;39.63;101733.55;;;;-56
2021/02/12 11:50:27;;;;;;;2.37;1.79;;;;;;;18.50;39.48;101729.73;;;;-57
2021/02/12 11:53:26;;;;;;;2.26;1.96;;;;;;;18.50;39.58;101730.39;;;;-56
2021/02/12 11:56:27;;;;;;;2.29;1.91;;;;;;;18.51;39.51;101728.37;;;;-56
2021/02/12 11:59:27;;;;;;;2.74;1.85;;;;;;;18.51;39.61;101728.97;;;;-54
2021/02/12 12:02:27;;;;;;;2.33;2.04;;;;;;;18.51;39.66;101730.27;;;;-54
2021/02/12 12:05:27;;;;;;;1.97;1.79;;;;;;;18.52;39.63;101728.09;;;;-57
2021/02/12 12:08:27;;;;;;;2.00;1.76;;;;;;;18.53;39.45;101732.16;;;;-58
2021/02/12 12:11:27;;;;;;;2.47;1.79;;;;;;;18.53;39.67;101726.56;;;;-55
2021/02/12 12:14:27;;;;;;;2.12;1.92;;;;;;;18.54;39.57;101729.53;;;;-55
2021/02/12 12:17:27;;;;;;;1.99;1.85;;;;;;;18.54;39.63;101732.22;;;;-55
2021/02/12 12:20:27;;;;;;;2.14;1.91;;;;;;;18.54;39.62;101727.52;;;;-55
2021/02/12 12:23:28;;;;;;;2.02;1.81;;;;;;;18.56;39.54;101728.30;;;;-54
2021/02/12 12:26:27;;;;;;;2.19;1.99;;;;;;;18.56;39.61;101730.41;;;;-54
2021/02/12 12:29:27;;;;;;;2.00;1.81;;;;;;;18.56;39.50;101733.34;;;;-55
2021/02/12 12:32:26;;;;;;;2.01;1.79;;;;;;;18.57;39.42;101733.38;;;;-57
2021/02/12 12:35:26;;;;;;;1.99;1.83;;;;;;;18.58;39.49;101734.53;;;;-56
2021/02/12 12:38:27;;;;;;;3.69;1.99;;;;;;;18.59;39.57;101730.24;;;;-56
2021/02/12 12:41:26;;;;;;;2.04;1.85;;;;;;;18.59;39.58;101722.94;;;;-56
2021/02/12 12:44:27;;;;;;;2.31;1.96;;;;;;;18.60;39.54;101724.52;;;;-57
2021/02/12 12:47:28;;;;;;;2.85;1.70;;;;;;;18.61;39.49;101726.41;;;;-56
2021/02/12 12:50:27;;;;;;;2.45;1.83;;;;;;;18.62;39.50;101720.84;;;;-56
2021/02/12 12:53:27;;;;;;;1.92;1.80;;;;;;;18.62;39.44;101719.30;;;;-53
2021/02/12 12:56:27;;;;;;;2.01;1.80;;;;;;;18.62;39.39;101715.34;;;;-54
2021/02/12 12:59:26;;;;;;;1.91;1.72;;;;;;;18.63;39.34;101714.62;;;;-54
2021/02/12 13:02:27;;;;;;;2.21;1.90;;;;;;;18.63;39.55;101711.20;;;;-56
2021/02/12 13:05:27;;;;;;;2.10;1.90;;;;;;;18.64;39.48;101711.98;;;;-57
2021/02/12 13:08:27;;;;;;;1.96;1.83;;;;;;;18.64;39.42;101707.36;;;;-56
2021/02/12 13:11:27;;;;;;;2.59;1.99;;;;;;;18.66;39.29;101709.20;;;;-56
2021/02/12 13:14:26;;;;;;;3.35;2.28;;;;;;;18.65;38.47;101701.94;;;;-52
2021/02/12 13:17:27;;;;;;;3.47;2.53;;;;;;;18.68;38.63;101702.92;;;;-54
2021/02/12 13:20:26;;;;;;;5.24;3.09;;;;;;;18.65;37.81;101700.06;;;;-48
2021/02/12 13:23:27;;;;;;;4.09;2.89;;;;;;;18.66;37.45;101701.89;;;;-50
2021/02/12 13:26:39;;;;;;;3.82;2.47;;;;;;;18.67;37.95;101702.23;;;;-50
2021/02/12 13:29:27;;;;;;;2.98;2.35;;;;;;;18.67;38.34;101701.02;;;;-50
2021/02/12 13:32:27;;;;;;;3.92;2.32;;;;;;;18.68;38.53;101701.38;;;;-50
2021/02/12 13:35:27;;;;;;;2.67;2.02;;;;;;;18.68;38.64;101702.84;;;;-50
2021/02/12 13:38:26;;;;;;;3.79;2.19;;;;;;;18.68;38.79;101702.59;;;;-51
2021/02/12 13:41:27;;;;;;;3.74;2.25;;;;;;;18.70;38.68;101702.34;;;;-49
2021/02/12 13:44:28;;;;;;;3.25;2.48;;;;;;;18.72;38.35;101708.33;;;;-52
2021/02/12 13:47:26;;;;;;;2.77;2.37;;;;;;;18.72;37.96;101708.41;;;;-52
2021/02/12 13:50:27;;;;;;;2.85;2.32;;;;;;;18.72;37.68;101702.80;;;;-52
2021/02/12 13:53:26;;;;;;;3.09;2.51;;;;;;;18.73;37.07;101710.28;;;;-53
2021/02/12 13:56:28;;;;;;;3.38;2.48;;;;;;;18.72;36.96;101711.70;;;;-52
2021/02/12 13:59:27;;;;;;;3.11;2.48;;;;;;;18.72;36.85;101710.35;;;;-53
2021/02/12 14:02:26;;;;;;;3.56;2.49;;;;;;;18.72;36.87;101712.79;;;;-55
2021/02/12 14:05:27;;;;;;;5.75;2.50;;;;;;;18.71;37.55;101712.27;;;;-54
2021/02/12 14:08:27;;;;;;;3.09;2.39;;;;;;;18.71;37.88;101711.28;;;;-54
2021/02/12 14:11:26;;;;;;;3.67;2.22;;;;;;;18.73;38.17;101714.92;;;;-47
2021/02/12 14:14:27;;;;;;;2.87;2.22;;;;;;;18.76;38.35;101711.20;;;;-60
2021/02/12 14:17:26;;;;;;;2.65;2.21;;;;;;;18.78;38.36;101717.68;;;;-57
2021/02/12 14:20:27;;;;;;;3.87;2.09;;;;;;;18.80;38.76;101714.25;;;;-53
2021/02/12 14:23:27;;;;;;;2.27;2.00;;;;;;;18.80;38.76;101716.72;;;;-53
2021/02/12 14:26:26;;;;;;;2.73;2.14;;;;;;;18.81;38.87;101718.35;;;;-56
2021/02/12 14:29:27;;;;;;;4.23;2.06;;;;;;;18.82;38.90;101725.43;;;;-50
2021/02/12 14:32:26;;;;;;;2.47;2.17;;;;;;;18.83;38.86;101727.11;;;;-52
2021/02/12 14:35:26;;;;;;;2.25;2.01;;;;;;;18.84;38.94;101727.84;;;;-51
2021/02/12 14:38:27;;;;;;;2.96;2.00;;;;;;;18.86;38.91;101730.09;;;;-52
2021/02/12 14:41:26;;;;;;;2.21;2.00;;;;;;;18.88;39.03;101732.43;;;;-53
2021/02/12 14:44:27;;;;;;;2.43;2.05;;;;;;;18.88;39.11;101737.27;;;;-53
2021/02/12 14:47:27;;;;;;;2.50;2.02;;;;;;;18.93;39.03;101750.63;;;;-53
2021/02/12 14:50:26;;;;;;;3.11;2.11;;;;;;;18.95;39.10;101746.63;;;;-52
2021/02/12 14:53:27;;;;;;;2.37;1.91;;;;;;;18.96;39.09;101740.64;;;;-51
2021/02/12 14:56:26;;;;;;;2.57;1.91;;;;;;;19.00;39.16;101747.41;;;;-54
2021/02/12 14:59:26;;;;;;;2.20;2.00;;;;;;;19.02;38.95;101740.32;;;;-52
2021/02/12 15:02:27;;;;;;;2.41;1.94;;;;;;;19.03;39.01;101743.58;;;;-53
2021/02/12 15:05:26;;;;;;;3.54;1.98;;;;;;;19.03;39.09;101746.83;;;;-51
2021/02/12 15:08:26;;;;;;;2.35;1.99;;;;;;;19.03;39.13;101750.52;;;;-50
2021/02/12 15:11:27;;;;;;;2.29;1.91;;;;;;;19.05;39.15;101751.89;;;;-52
2021/02/12 15:14:27;;;;;;;2.09;1.89;;;;;;;19.07;39.10;101758.69;;;;-51
2021/02/12 15:17:30;;;;;;;2.27;1.97;;;;;;;19.09;39.16;101764.56;;;;-56
2021/02/12 15:20:26;;;;;;;2.21;1.85;;;;;;;19.12;39.12;101753.77;;;;-54
2021/02/12 15:23:26;;;;;;;1.95;1.85;;;;;;;19.12;39.16;101758.50;;;;-52
2021/02/12 15:26:27;;;;;;;2.17;1.97;;;;;;;19.08;39.18;101758.86;;;;-51
2021/02/12 15:29:26;;;;;;;6.38;2.48;;;;;;;19.05;38.33;101763.27;;;;-54
2021/02/12 15:32:26;;;;;;;3.87;2.21;;;;;;;19.07;38.21;101762.06;;;;-53
2021/02/12 15:35:26;;;;;;;2.20;2.00;;;;;;;19.11;38.43;101763.89;;;;-53
2021/02/12 15:38:26;;;;;;;2.45;2.09;;;;;;;19.12;38.47;101766.77;;;;-60
2021/02/12 15:41:27;;;;;;;9.08;2.17;;;;;;;19.15;38.45;101778.63;;;;-52
2021/02/12 15:44:26;;;;;;;5.55;2.06;;;;;;;19.13;38.25;101779.79;;;;-51
2021/02/12 15:47:28;;;;;;;2.63;2.08;;;;;;;19.14;38.26;101778.05;;;;-52
2021/02/12 15:50:29;;;;;;;5.45;2.12;;;;;;;19.18;38.34;101778.33;;;;-52
2021/02/12 15:53:27;;;;;;;2.09;1.87;;;;;;;19.20;38.41;101782.70;;;;-56
2021/02/12 15:56:26;;;;;;;2.45;2.05;;;;;;;19.21;38.47;101783.11;;;;-53
2021/02/12 15:59:27;;;;;;;9.92;2.05;;;;;;;19.23;38.58;101788.78;;;;-58
2021/02/12 16:02:26;;;;;;;2.37;2.09;;;;;;;19.23;38.56;101782.61;;;;-54
2021/02/12 16:05:28;;;;;;;2.55;1.92;;;;;;;19.26;38.63;101789.09;;;;-52
2021/02/12 16:08:27;;;;;;;2.67;1.95;;;;;;;19.27;38.66;101787.28;;;;-52
2021/02/12 16:11:26;;;;;;;4.11;2.12;;;;;;;19.29;38.63;101791.23;;;;-55
2021/02/12 16:14:27;;;;;;;2.29;1.91;;;;;;;19.33;38.76;101788.75;;;;-54
2021/02/12 16:17:26;;;;;;;2.21;1.99;;;;;;;19.35;38.66;101797.51;;;;-54
2021/02/12 16:20:27;;;;;;;2.27;2.00;;;;;;;19.36;38.63;101790.68;;;;-54
2021/02/12 16:23:27;;;;;;;1.97;1.81;;;;;;;19.37;38.65;101795.69;;;;-55
2021/02/12 16:26:26;;;;;;;2.35;1.87;;;;;;;19.36;38.74;101798.97;;;;-49
2021/02/12 16:29:27;;;;;;;2.16;1.95;;;;;;;19.39;38.63;101799.80;;;;-50
2021/02/12 16:32:28;;;;;;;2.21;1.93;;;;;;;19.39;38.70;101803.64;;;;-59
2021/02/12 16:35:27;;;;;;;3.50;2.00;;;;;;;19.40;38.52;101806.89;;;;-59
2021/02/12 16:38:27;;;;;;;2.43;1.82;;;;;;;19.39;38.42;101810.88;;;;-59
2021/02/12 16:41:27;;;;;;;2.23;1.94;;;;;;;19.38;38.39;101810.41;;;;-59
2021/02/12 16:44:26;;;;;;;2.74;2.00;;;;;;;19.36;38.35;101815.02;;;;-59
2021/02/12 16:47:27;;;;;;;3.32;1.85;;;;;;;19.36;38.31;101818.28;;;;-52
2021/02/12 16:50:27;;;;;;;2.96;2.01;;;;;;;19.38;38.40;101821.55;;;;-51
2021/02/12 16:53:27;;;;;;;3.73;1.91;;;;;;;19.36;38.33;101816.77;;;;-51
2021/02/12 16:56:27;;;;;;;2.84;1.87;;;;;;;19.35;38.26;101824.98;;;;-51
2021/02/12 16:59:26;;;;;;;2.59;2.00;;;;;;;19.35;38.36;101820.09;;;;-51